Terminal Aerodrome Forecast
Issued by NWS

Home | Current Version | Previous Version | Text Only | Print | Product List | Glossary On
Versions: 1 2 3 4 5 6 7 8 9 10 11 12 13 14 15 16 17 18 19 20 21 22 23 24 25 26
000
FTUS43 KMPX 012300 RRA
TAFAXN
TAF
KAXN 012343Z 0200/0224 18008KT P6SM SCT040
     FM020300 25005KT P6SM SCT040
     FM020600 32005KT 6SM BR SCT040 BKN100
     FM021600 28006KT P6SM SCT040 BKN100 OVC250=

USA.gov is the U.S. government's official web portal to all federal, state and local government web resources and services.